Las Vegas, NV

3:38 PM PDT on July 25, 2016 (GMT -0700)
McCarran International | | Change Station

Elev 2178 ft 36.07 °N, 115.16 °W | Updated 42 minutes ago

Scattered Clouds
Scattered Clouds
108 °F
Feels Like 108 °F
N
10
Wind Variable Wind from South

Today
High -- | Low -- °F
--% Chance of Precip.
Yesterday
High -- | Low -- °F
Precip. -- in
Pressure 29.72 in
Visibility 10.0 miles
Clouds Few 20000 ft
Scattered Clouds 25000 ft
Dew Point 33 °F
Humidity 8%
Rainfall 0.00 in
Snow Depth Not available.
5:42 AM 7:50 PM
Waning Gibbous, 61% visible
METAR KLAS 252156Z 17009KT 10SM FEW200 SCT250 42/01 A2982 RMK AO2 SLP062 FU AND HZ VC ALQDS T04220006
Pressure 29.72 in
Visibility 10.0 miles
Clouds Few 20000 ft
Scattered Clouds 25000 ft
Dew Point 33 °F
Humidity 8%
Rainfall 0.00 in
Snow Depth Not available.
5:42 AM 7:50 PM
Waning Gibbous, 61% visible
METAR KLAS 252156Z 17009KT 10SM FEW200 SCT250 42/01 A2982 RMK AO2 SLP062 FU AND HZ VC ALQDS T04220006

10-Day Weather Forecast

Almanac

Astronomy

Jul. 25, 2016 Rise Set
Actual Time
Civil Twilight
Nautical Twilight
Astronomical Twilight
Moon
Length of Visible Light
Length of Day
Tomorrow will be .
, % of the Moon is Illuminated

Today's Extremes

State Highs State Lows

Community

WunderPhotos

Upload Photos

1,927,433 photos uploaded!

WunderBlog® & News

Nearby

Air Quality

  Air Quality AQ Index Pollutant
Not available.

Snow Depth

Station Depth Elevation

Earthquake Activity

City Distance Mag. Time & Date
Minimum magnitude displayed is 2.5.

Coastal Water Temperatures

Place Temperature

Stations

Nearby Weather Stations

Station Location Temp. Windchill Dew Point Humidity Wind Precip. Elev Updated Type
                   

Watches & Warnings

There are currently no watches in effect.